2020年10月印度尼西亚进口电表(902830)全球贸易数据

来源:IIM信息产业管理   点击:
2020年10月印度尼西亚进口电表(902830)全球贸易数据
# 日期 HS编码 进口商 出口商/品牌 产品描述 原产国 重量 数量 金额(USD)
1 2020/10/28 90283090 METRO PEARL INDONESIA WEI HONG INDUSTRIAL HONG KONG LIMITED O B HORIZON GROU DIGITAL ENERGY-SAVING HIGH CYCLE LEVELER CHINA 34 KGS 1 1,150
2 2020/10/27 90283090 PT OBSIDIAN STAINLESS STEEL XIANGSHUI CHANG LONG TRADE CO LTD WATT HOUR METER BAIK DAN BARU CHINA 160 KGS 32 9,684.67
3 2020/10/27 90283010 PT SCHNEIDER ELECTRIC INDONESIA SCHNEIDER ELECTRIC INDUSTRIES SAS SINGLE PHASE KWH METER 63A MODBUS P/N: 2403139990 9143383409 ITALY 2.13 KGS 2 138.84
4 2020/10/27 90283010 PT SCHNEIDER ELECTRIC INDONESIA SCHNEIDER ELECTRIC INDUSTRIES SAS SINGLE PHASE KWH METER 63A MODBUS P/N: 2403140196 9143386367 ITALY 3.44 KGS 3 208.43
5 2020/10/26 90283090 PT ESUN INTERNATIONAL UTAMA INDONESIA CHAMPVIEW INC ELECTRICITY METERS UNITED STATES 36,968 KGS 36,968 12,938.80
6 2020/10/26 90283090 PT ESUN INTERNATIONAL UTAMA INDONESIA CHAMPVIEW INC ELECTRICITY METERS UNITED STATES 566 KGS 566 169.8
7 2020/10/25 90283090 PT ESUN INTERNATIONAL UTAMA INDONESIA CHAMPVIEW INC ELECTRICITY METERS UNITED STATES 11,987 KGS 11,987 3,596.10
8 2020/10/23 90283090 PT BINA PRIMA SEKAWAN JFE CONSOLIDATORS PTE LTD MEASUREMENT and CONTROL MODULE SINGAPORE 974.29 KGS 40 5,400
9 2020/10/22 90283090 PT BINA PRIMA SEKAWAN GUTEN EXPORTRADE PTE LTD DIGITAL METER SINGAPORE 4,154.54 KGS 1,776 11,988
10 2020/10/22 90283010 PT AVAIRRA INDO KARYA SECURE METERS SWEDEN AB PROMETER 100 WAL.MODULE 1-RS485.CLASS 0.2S.57,7-240V 3P4W, 100-240V 3P3W.1(10)A.AUX UNITED KINGDOM 9.1 KGS 2 1,412.86
11 2020/10/22 90283090 PT MEPCON INTEGRA NUSA DFUN ZHUHAI CO LTD ELECTRICITY ENERGY METER TEM025 CHINA 203.67 KGS 988 3,475
12 2020/10/22 90283010 PT AVAIRRA INDO KARYA SECURE METERS SWEDEN AB PROMETER 100 WAL.MODULE 1-RS485.CLASS 0.5S.57,7-240V 3P4W, 100-240V 3P3W.1(10)A.AUX UNITED KINGDOM 3.64 KGS 2 565.14
13 2020/10/22 90283090 PT AVAIRRA INDO KARYA SECURE METERS SWEDEN AB WIDE RANGE,IB-1A/5A.W/O MID.CEWE.80-300 VAC/DC.0.5S.ELITE 440 UNITED KINGDOM 56.89 KGS 100 8,830.37
14 2020/10/22 90283090 PT SCHNEIDER ELECTRIC INDONESIA SCHNEIDER ELECTRIC ASIA PTE LTD Easylogic PM2x30 Analog IO Module 2-IO 2403138713/1 9430030995 INDIA 0.33 KGS 1 19.66
15 2020/10/22 90283090 PT MEPCON INTEGRA NUSA DFUN ZHUHAI CO LTD ELECTRICITY ENERGY METER TEM045 CHINA 83.93 KGS 150 1,432.01
16 2020/10/22 90283090 PT SCHNEIDER ELECTRIC INDONESIA SCHNEIDER ELECTRIC ASIA PTE LTD EasyLogic VAF P and E RS485 15thHar CL 1 2403138598/13 9430030995 INDIA 136.79 KGS 144 8,145.48
17 2020/10/21 90283090 PT ROYAL ENERGY RESOURCES SCHWEITZER ENGINEERING LABS REVENUE METER - UNITED STATES 5.9 KGS 2 4,791.34
18 2020/10/21 90283090 GOLDEN AGIN NUSA FORTUSTAR CO LTD VOLT METER CHINA 132 KGS 16,000 2,960
19 2020/10/21 90283090 PT IONIX SURYA CAPITALINDO IBC SOLAR AG 3401200169 SUNGROW METER 1~ FOR RESIDENTIAL CHINA 0.78 KGS 1 50.99
20 2020/10/21 90283090 PT IONIX SURYA CAPITALINDO IBC SOLAR AG 3401200170 SUNGROW METER 3~ DTSD1352-C UP TO 80A CHINA 2.44 KGS 2 159.84
21 2020/10/20 90283090 PT NIAGA BERKAT LAUTAN ENERGY CONTROL TECHNOLOGIES SENSORS UNITED STATES 5.76 KGS 1 3,064.68
22 2020/10/20 90283010 PT SCHNEIDER ELECTRIC INDONESIA SCHNEIDER ELECTRIC INDUSTRIES SAS SINGLE PHASE KWH METER 63A MODBUS P/N: 2403138850 9143371214 ITALY 1.9 KGS 4 276.35
23 2020/10/19 90283090 PT BATAM CYCLECT BEIJING GFUVE ELECTRONICS CO LTD SINGLE PHASE ENERGY METER TEST EQUIPMENT CHINA 26.2 KGS 1 4,650
24 2020/10/16 90283090 PT ESUN INTERNATIONAL UTAMA INDONESIA CHAMPVIEW INC ELECTRICITY METERS UNITED STATES 14,100 KGS 14,100 8,460
25 2020/10/16 90283090 PT ESUN INTERNATIONAL UTAMA INDONESIA NAGANO EXPORTS SCRAPT COMMON FACILILY CO OPERATIVE ELECTRICITY METERS JAPAN 5,293 KGS 5,293 27.63
26 2020/10/16 90283090 PT ESUN INTERNATIONAL UTAMA INDONESIA VIROGREEN SINGAPORE PTE LTD ELECTRICITY METERS SINGAPORE 6,940 KGS 6,940 3,808.35
27 2020/10/16 90283090 PT ROYAL ENERGY RESOURCES SCHWEITZER ENGINEERING LABS POWER QUALITY AND REVENUE METER - UNITED STATES 20.6 KGS 7 16,612
28 2020/10/15 90283090 PT SCHNEIDER ELECTRIC INDONESIA SCHNEIDER ELECTRIC ASIA PTE LTD EasyLogic VAF P and E RS485 15thHar CL 1 2403137397/11 9430029007 INDIA 128.33 KGS 54 3,037.57
29 2020/10/15 90283090 PT HEXING TECHNOLOGY HEXING ELECTRICAL CO LTD METER PARTS 320 : SMALL COVER KON. BARU CHINA 22.14 KGS 2,000 1,000
30 2020/10/15 90283090 PT HEXING TECHNOLOGY HEXING ELECTRICAL CO LTD METER PARTS 320 : WAVE SOLDER PARTS KON. BARU CHINA 243.62 KGS 39,306 11,005.70
31 2020/10/15 90283090 PT HEXING TECHNOLOGY HEXING ELECTRICAL CO LTD METER PARTS 116 : CURRENT TERMINAL KON.BARU CHINA 705.23 KGS 450,000 31,860
32 2020/10/15 90283090 PT HEXING TECHNOLOGY HEXING ELECTRICAL CO LTD METER PARTS 320 : PCB KON.BARU CHINA 154.95 KGS 2,000 7,000
33 2020/10/15 90283090 PT HEXING TECHNOLOGY HEXING ELECTRICAL CO LTD METER PARTS 116 : BUZZER KON.BARU CHINA 251.97 KGS 74,401 11,383.40
34 2020/10/15 90283090 PT SCHNEIDER ELECTRIC INDONESIA SCHNEIDER ELECTRIC ASIA PTE LTD EasyLogic VAF P and E RS485 15thHar CL 1 2403137397/10 9430029007 INDIA 128.33 KGS 54 3,037.57
35 2020/10/15 90283090 PT HEXING TECHNOLOGY HEXING ELECTRICAL CO LTD METER PARTS 320 : DIODE KON.BARU CHINA 60.03 KGS 113,000 2,712
36 2020/10/15 90283090 PT HEXING TECHNOLOGY HEXING ELECTRICAL CO LTD METER PARTS 320 : SMT PARTS KON.BARU CHINA 53.69 KGS 69,300 2,425.50
37 2020/10/15 90283090 PT SCHNEIDER ELECTRIC INDONESIA SCHNEIDER ELECTRIC ASIA PTE LTD Easylogic PM2x30 Analog IO Module 2-IO 2403137037/1 9430029007 INDIA 3.3 KGS 4 78.21
38 2020/10/15 90283090 PT HEXING TECHNOLOGY HEXING ELECTRICAL CO LTD METER PARTS 116 : KEYPAD SOFTLINE KON.BARU CHINA 102.11 KGS 74,401 4,612.86
39 2020/10/15 90283090 PT SCHNEIDER ELECTRIC INDONESIA SCHNEIDER ELECTRIC ASIA PTE LTD EasyLogic VAF PandE RS485 31stHar CL 0.5S 2403137796/13 9430029007 INDIA 17.96 KGS 7 425.2
40 2020/10/15 90283090 PT SCHNEIDER ELECTRIC INDONESIA SCHNEIDER ELECTRIC ASIA PTE LTD EasyLogic VAF P and E RS485 15thHar CL 1 2403137796/1 9430029007 INDIA 128.33 KGS 54 3,037.57
41 2020/10/15 90283090 PT SCHNEIDER ELECTRIC INDONESIA SCHNEIDER ELECTRIC ASIA PTE LTD PM5560 POWER METER 63rd H 8T CL0.2 4I2O 2403134289/1 9430029007 INDIA 5,184.25 KGS 387 122,710
42 2020/10/15 90283090 PT HEXING TECHNOLOGY HEXING ELECTRICAL CO LTD METER PARTS 116 : PIPE CLIP AND STAND KON.BARU CHINA 21.74 KGS 148,802 982.09
43 2020/10/15 90283090 PT HEXING TECHNOLOGY HEXING ELECTRICAL CO LTD METER PARTS 116 : RELAY KON.BARU CHINA 2,991.29 KGS 75,335 135,136
44 2020/10/15 90283090 PT HEXING TECHNOLOGY HEXING ELECTRICAL CO LTD METER PARTS 116 : AUDION KON.BARU CHINA 162.23 KGS 1,047,000 7,329
45 2020/10/15 90283090 PT HEXING TECHNOLOGY HEXING ELECTRICAL CO LTD METER PARTS 320 : METER COVER KON.BARU CHINA 66.44 KGS 2,000 3,001.60
46 2020/10/15 90283090 PT HEXING TECHNOLOGY HEXING ELECTRICAL CO LTD METER PARTS 116 : CRYSTAL OSCILLATOR AND COVER KON.BARU CHINA 92.23 KGS 148,802 4,166.46
47 2020/10/15 90283090 PT HEXING TECHNOLOGY HEXING ELECTRICAL CO LTD METER PARTS 116 : SOCKET KON.BARU CHINA 121.87 KGS 148,802 5,505.67
48 2020/10/15 90283090 PT HEXING TECHNOLOGY HEXING ELECTRICAL CO LTD METER PARTS 116 : NUT KON.BARU CHINA 31.62 KGS 297,604 1,428.50
49 2020/10/15 90283090 PT HEXING TECHNOLOGY HEXING ELECTRICAL CO LTD METER PARTS 320 : ASSEMBLY PARTS KON. BARU CHINA 122.86 KGS 58,000 5,550.60
50 2020/10/15 90283090 PT JAYA SUKSES SEMESTA MIKRO SDN BHD DPM680-415AD DIGITAL POWER METER MALAYSIA 16.13 KGS 10 1,801.30
51 2020/10/15 90283090 PT HEXING TECHNOLOGY HEXING ELECTRICAL CO LTD METER PARTS 320 : CAPACITOR KON.BARU CHINA 110.4 KGS 337,000 4,987.60
52 2020/10/15 90283090 PT HEXING TECHNOLOGY HEXING ELECTRICAL CO LTD METER PARTS 320 : LCD KON.BARU CHINA 68.66 KGS 2,000 3,102
53 2020/10/15 90283090 PT HEXING TECHNOLOGY HEXING ELECTRICAL CO LTD METER PARTS 116 : EEPROM KON.BARU CHINA 156.05 KGS 75,000 7,050
54 2020/10/15 90283090 PT HEXING TECHNOLOGY HEXING ELECTRICAL CO LTD METER PARTS 116 : OPEN COVER DETECTION BUTTON KON.BARU CHINA 66.21 KGS 148,802 2,990.92
55 2020/10/15 90283090 PT HEXING TECHNOLOGY HEXING ELECTRICAL CO LTD METER PARTS 116 : LCD AND BACKLIGHT KON.BARU CHINA 1,107.53 KGS 228,468 50,034.50
56 2020/10/15 90283090 PT HEXING TECHNOLOGY HEXING ELECTRICAL CO LTD METER PARTS 116 : KEYPAD PCB KON.BARU CHINA 256.09 KGS 74,401 11,569.40
57 2020/10/15 90283090 PT HEXING TECHNOLOGY HEXING ELECTRICAL CO LTD METER PARTS 116 : RESISTOR KON.BARU CHINA 111.29 KGS 6,284,400 5,027.52
58 2020/10/15 90283090 PT HEXING TECHNOLOGY HEXING ELECTRICAL CO LTD METER PARTS 116 : MOSFET KON.BARU CHINA 260.78 KGS 153,000 11,781
59 2020/10/15 90283090 PT HEXING TECHNOLOGY HEXING ELECTRICAL CO LTD METER PARTS 116 : PCB KON.BARU CHINA 1,317.52 KGS 74,401 59,520.80
60 2020/10/15 90283090 PT HEXING TECHNOLOGY HEXING ELECTRICAL CO LTD METER PARTS 320 : CURRENT TERMINAL KON. BARU CHINA 109.79 KGS 16,000 4,960
61 2020/10/15 90283090 PT HEXING TECHNOLOGY HEXING ELECTRICAL CO LTD METER PARTS 320 : RESISTOR KON.BARU CHINA 57.35 KGS 508,000 2,590.80
62 2020/10/15 90283090 PT HEXING TECHNOLOGY HEXING ELECTRICAL CO LTD METER PARTS 116 : IC KON.BARU CHINA 2,957.98 KGS 460,797 133,631
63 2020/10/15 90283090 PT SCHNEIDER ELECTRIC INDONESIA SCHNEIDER ELECTRIC ASIA PTE LTD EasyLogic VAF P and E RS485 15thHar CL 1 2403137397/9 9430029007 INDIA 128.33 KGS 54 3,037.57
64 2020/10/15 90283090 PT HEXING TECHNOLOGY HEXING ELECTRICAL CO LTD METER PARTS 116 : CAPACITOR KON.BARU CHINA 1,259.13 KGS 5,171,210 56,883.30
65 2020/10/15 90283090 PT HEXING TECHNOLOGY HEXING ELECTRICAL CO LTD METER PARTS 116 : INDUCTOR KON.BARU CHINA 187 KGS 528,000 8,448
66 2020/10/15 90283090 PT HEXING TECHNOLOGY HEXING ELECTRICAL CO LTD METER PARTS 116 : TRANSFORMER KON.BARU CHINA 358.12 KGS 75,600 16,178.40
67 2020/10/15 90283090 PT SCHNEIDER ELECTRIC INDONESIA SCHNEIDER ELECTRIC ASIA PTE LTD EasyLogic VAF P and E RS485 15thHar CL 1 2403137499/1 9430029251 INDIA 128.33 KGS 54 3,037.57
68 2020/10/15 90283090 PT SCHNEIDER ELECTRIC INDONESIA SCHNEIDER ELECTRIC ASIA PTE LTD EasyLogic VAF PandE RS485 31stHar CL 0.5S 2403137796/14 9430029007 INDIA 17.96 KGS 7 425.2
69 2020/10/15 90283090 PT HEXING TECHNOLOGY HEXING ELECTRICAL CO LTD METER PARTS 116 : DIODE KON.BARU CHINA 643.11 KGS 1,660,200 29,053.50
70 2020/10/15 90283090 PT HEXING TECHNOLOGY HEXING ELECTRICAL CO LTD METER PARTS 116 : SEALING CIRCLE KON.BARU CHINA 23.06 KGS 74,401 1,041.61
71 2020/10/15 90283090 PT HEXING TECHNOLOGY HEXING ELECTRICAL CO LTD METER PARTS 116 : MAGNETIC SENSOR KON.BARU CHINA 233.09 KGS 78,000 10,530
72 2020/10/15 90283090 PT HEXING TECHNOLOGY HEXING ELECTRICAL CO LTD METER PARTS 116 : VARISTOR KON.BARU CHINA 182.81 KGS 74,401 8,258.51
73 2020/10/15 90283090 PT HEXING TECHNOLOGY HEXING ELECTRICAL CO LTD METER PARTS 320 : IC KON.BARU CHINA 389.58 KGS 40,000 17,600
74 2020/10/14 90283090 HUADI NICKEL ALLOY INDONESIA LISHUI MOKUI IMPORT EXPORT CO LTD DEMOCRATIC FOUR-WIRE ACTIVE WATT-HOUR METER CHINA 9 KGS 5 135.01
75 2020/10/14 90283090 PT VALE INDONESIA TBK Z POWER ELECTRIC TRANSMITTER SUBASSEMBLY MODEL LPC-200 VR 0035002165 BLHELECT 4506607592 UNITED STATES 30.62 KGS 2 7,096.06
76 2020/10/14 90283090 PT ESUN INTERNATIONAL UTAMA INDONESIA CHAMPVIEW INC ELECTRICITY METERS UNITED STATES 8,582 KGS 8,582 6,436.50
77 2020/10/14 90283090 PT INTRACO PENTA WAHANA HALCON PRIMO LOGISTICS PTE LTD METER BOARD BAIK/BARU CHINA 81.85 KGS 2 482.57
78 2020/10/14 90283090 PT VALE INDONESIA TBK Z POWER ELECTRIC TRANSMITTER TEMP ELECT 50 TO 150DEG C 0035004626 ROSEMNT 4506607802 UNITED STATES 87.56 KGS 14 20,289.60
79 2020/10/13 90283090 PT MEPCON INTEGRA NUSA YUEQING LOGOS ELECTRICAL CO LTD ELECTRICITY ENERGY METER TEM017 CHINA 313.11 KGS 1,900 5,816.69
80 2020/10/13 90283010 PT TUNAS WIJAYA SAKTI SOCOMEC ASIA PACIFIC PTE LTD COUNTIS E40 3PH CT/5A FRANCE 11.47 KGS 20 1,985.99
81 2020/10/13 90283090 PT MEPCON INTEGRA NUSA YUEQING LOGOS ELECTRICAL CO LTD ELECTRICITY ENERGY METER ACCESSORIES CHINA 1.89 KGS 4 35.13
82 2020/10/13 90283090 PT ENERGI AGRI BAHARI PROINSO EMETER-20 GERMANY 2.29 KGS 5 1,517.12
83 2020/10/13 90283090 PT ESUN INTERNATIONAL UTAMA INDONESIA CHAMPVIEW INC ELECTIRCITY METERS UNITED STATES 3,734 KGS 3,734 1,493.60
84 2020/10/13 90283090 PT DENGENSHA INDONESIA DENGENSHA TOA CO LTD ELECTRICAL LOAD EQUIPMENT KOND.BAIK-BARU JAPAN 45 KGS 1 569.46
85 2020/10/12 90283090 PT ESUN INTERNATIONAL UTAMA INDONESIA CHAMPVIEW INC ELECTRICITY METERS UNITED STATES 11,100 KGS 11,100 6,660
86 2020/10/12 90283090 PT ESUN INTERNATIONAL UTAMA INDONESIA CHAMPVIEW INC ELECTRICITY METERS UNITED STATES 5,386 KGS 5,386 3,231.60
87 2020/10/12 90283090 PT INDONESIA GUANG CHING NICKEL AND STAINLESS STEE SHANGHAI DECENT INVESTMENT GROUP CO L MULTI-FUNCTION POWER METER CHINA 106.67 KGS 10 3,380
88 2020/10/9 90283010 CV CITRA JAVA PASIFIC HANGZHOU YAOGUANG IMPORT AND EXPORT TRAD REGULAR VOLTAGE TESTER-125MM WITH MAGNETIC CHINA 396.27 KGS 7,200 1,172.14
89 2020/10/9 90283090 PT SHENHUA GUOHUA PEMBANGKITAN JAWA BALI P Y GLOBAL TIANJIN TRADING CO LTD PRESSURE GAUGE WITH SKIRT BAIK/BARU CHINA 6.47 KGS 2 181.03
90 2020/10/9 90283010 CV CITRA JAVA PASIFIC HANGZHOU YAOGUANG IMPORT AND EXPORT TRAD REGULAR VOLTAGE TESTER-145MM WITH MAGNETIC CHINA 617.27 KGS 10,800 1,825.84
91 2020/10/9 90283090 PT SHENHUA GUOHUA PEMBANGKITAN JAWA BALI P Y GLOBAL TIANJIN TRADING CO LTD VIBRATION-RESISTANT PRESSURE GAUGE BAIK/BARU CHINA 21.72 KGS 12 607.67
92 2020/10/9 90283090 PT ROTARYANA PRIMA THERMOPLAN AG 129.396 FLOWMETER FH MOLEXD1.2 BRASS ASSY SWITZERLAND 4.56 KGS 10 1,037.15
93 2020/10/9 90283090 PT ESUN INTERNATIONAL UTAMA INDONESIA CHAMPVIEW INC ELECTRICITY METERS UNITED STATES 940 KGS 940 376
94 2020/10/9 90283090 PT SHENHUA GUOHUA PEMBANGKITAN JAWA BALI P Y GLOBAL TIANJIN TRADING CO LTD DIFFERENTIAL PRESSURE GAUGE BAIK/BARU CHINA 121.4 KGS 6 3,397.11
95 2020/10/8 90283090 PT INDONESIA RUIPU NICKEL AND CHROME ALLOY FUJIAN REASON SAFETY TANK CONTAINER LOGISTICS CO LTD POWER QUALITY ANALYSIS METER CHINA 0 KGS 8 5,928
96 2020/10/8 90283090 PT DENGENSHA INDONESIA DENGENSHA TOA CO LTD 4CH THERMOMETER WITH SD CARD, THERMOCOUPLE CONNECTRO CT-05SD KOND.BAIK-BARU JAPAN 1.04 KGS 1 313.2
97 2020/10/7 90283090 PT MITRA AVIASI PERKASA AIRCRAFT SPRUCE MIDWEST VDO GAUGE 2" 12V AMP AM010 UNITED STATES 0.38 KGS 1 90.81
98 2020/10/7 90283010 PT MIOTA INTERNASIONAL TEKNOLOGI HANGZHOU LAIBICHANG COMMERCE CO LTD SINGLE PHASE ELECTRIC METER CHINA 5,000 KGS 10,000 265,476
99 2020/10/7 90283090 PT MITRA AVIASI PERKASA AIRCRAFT SPRUCE WEST VDO GAUGE 2" 12V AMP AM010 UNITED STATES 0.36 KGS 1 61.63
100 2020/10/7 90283090 PT MULIAGLASS GRAPHOIDAL DEVELOPMENTS LTD 10 - 90 L/H INDUCTIVE FLOWMETER (SSU / MSSU) UNITED KINGDOM 0.68 KGS 1 765.09
101 2020/10/7 90283090 PT SCHNEIDER ELECTRIC INDONESIA SCHNEIDER ELECTRIC ASIA PTE LTD PowerTag Energy M63 3PN Bottom P/N : 2403137154/1 9430028407 FRANCE 1.01 KGS 1 84.79
102 2020/10/6 90283090 PT SCHNEIDER ELECTRIC INDONESIA SCHNEIDER ELECTRIC ASIA PTE LTD TRIPHASE KWH METER 63A PULSE MID P/N : 2403137687/2 9430028081 CHINA 6.43 KGS 9 758.75
103 2020/10/6 90283090 PT ELECTRA INTI PERKASA CCC BEIJING INDUSTRIAL COMMERCIAL CO SINGLE PHASAE SMART METER - CHINA 5,600 KGS 4,500 292,500
104 2020/10/5 90283090 PT MITSUBISHI ELECTRIC INDONESIA MITSUBISHI ELECTRIC CORPORATION ME-0040C-SS96 INDICATING METER OPTIONAL PLUG-IN MODULES JAPAN 1.21 KGS 1 76.88
105 2020/10/5 90283090 PT ELECTRA INTI PERKASA WASION GROUP LIMITED THREE PHASE SMART METER AMETER300 - CHINA 22,725 KGS 10,100 600,001
106 2020/10/5 90283090 PT INTRACO PENTA WAHANA DOOSAN BOBCAT KOREA CO LTD METER HOUR QUARTZ BAIK/BARU UNITED STATES 4.82 KGS 3 117.08
107 2020/10/5 90283090 PT INTRACO PENTA WAHANA DOOSAN BOBCAT KOREA CO LTD HOURMETER GAUGE BAIK/BARU UNITED STATES 12.33 KGS 10 299.5
108 2020/10/5 90283090 PT ABB SAKTI INDUSTRI ABB XIAMEN SWITCHGEAR CO LTD VIP-OT-CVD31X-24-2 VOLTAGE INDICATOR CHINA 0.37 KGS 4 204.16
109 2020/10/5 90283090 PT MITSUBISHI ELECTRIC INDONESIA MITSUBISHI ELECTRIC CORPORATION ME96SSRB-MB INDICATING METER MULTI-MEASURING INSTRUMENT JAPAN 50.66 KGS 29 3,220.52
110 2020/10/5 90283090 PT MITSUBISHI ELECTRIC INDONESIA MITSUBISHI ELECTRIC CORPORATION ME96SSRB-MB INDICATING METER MULTI-MEASURING INSTRUMENT JAPAN 1.75 KGS 1 111.05
111 2020/10/2 90283090 PT ENERGI AGRI BAHARI PROINSO UK LIMITED SMA SOLAR INVERTERS and ACCESSORIES BAIK BARU GERMANY 0.5 KGS 2 585.05
112 2020/10/2 90283090 PT MAXINDO ENERGITAMA ZHEJIANG EASTRON ELECTRONIC CO LTD SINGLE PHASE DIGITAL METER HFEM-1140MDP CHINA 19 KGS 200 1,523.80
113 2020/10/2 90283090 PT MEPCON INTEGRA NUSA DFUN ZHUHAI CO LTD ELECTRICITY ENERGY METER TEM025 CHINA 300 KGS 1,500 5,272.35
114 2020/10/2 90283090 PT MAXINDO ENERGITAMA ZHEJIANG EASTRON ELECTRONIC CO LTD THREE PHASE DIGITAL METER HFEM-3400CT-DP CHINA 60 KGS 200 4,275.10
115 2020/10/2 90283090 PT MAXINDO ENERGITAMA ZHEJIANG EASTRON ELECTRONIC CO LTD THREE PHASE DIGITAL METER HFEM-3480DDP CHINA 72 KGS 200 3,640.18
116 2020/10/2 90283090 PT GUANGXI HIDROELEKTRIK KONSTRUKSI INDONESIA CHINA ENERGY ENGINEERING GROUP GUANGXI POWER METERING SYSTEM CHINA 280 KGS 1 9,761.70
117 2020/10/1 90283010 EDMI MANUFACTURING INDONESIA EDMI INTERNATIONAL TRADING SHANGHAI CO LTD MK10M METER CHINA 5 KGS 2 20
118 2020/10/1 90283010 EDMI MANUFACTURING INDONESIA EDMI SHENZHEN CO LTD SAGO ELECTRICITY METER CHINA 1.6 KGS 2 40
119 2020/10/1 90283090 PT GUNUNG TIMUR LIMINDO SHENZHEN JING HONGYING TRADE CO LTD PRESSURE GAUGE CHINA 0.5 KGS 2 21.58
120 2020/10/1 90283090 PT SCHNEIDER ELECTRIC INDONESIA SCHNEIDER ELECTRIC ASIA PTE LTD PowerTag Energy M63 3P 2403137063/3 9430024241 FRANCE 13.64 KGS 8 677.78
121 2020/10/1 90283090 PT SCHNEIDER ELECTRIC INDONESIA SCHNEIDER ELECTRIC ASIA PTE LTD EasyLogic VAF PandE RS485 31stHar CL 0.5S 2403137305/2 9430024241 INDIA 73.33 KGS 60 3,644.22
122 2020/10/1 90283090 PT SCHNEIDER ELECTRIC INDONESIA SCHNEIDER ELECTRIC ASIA PTE LTD EasyLogic VAF PandE RS485 31stHar CL 0.5S 2403137064/1 9430024241 INDIA 19.55 KGS 16 971.79

 

相关文章

图片链接
搜索 搜索 订单 订单 客服 客服 注册 注册 联系 联系 投稿 专栏